createdAt,value
2022-08-05T00:02:07.717Z,27.39
2022-08-05T00:04:42.460Z,27.46
2022-08-05T00:07:27.353Z,27.50
2022-08-05T00:10:06.977Z,27.57
2022-08-05T00:12:48.460Z,27.60
2022-08-05T00:15:55.496Z,27.66
2022-08-05T00:18:22.527Z,27.70
2022-08-05T00:20:54.025Z,27.76
2022-08-05T00:23:44.837Z,27.83
2022-08-05T00:26:21.071Z,27.89
2022-08-05T00:28:53.433Z,27.91
2022-08-05T00:31:54.008Z,27.95
2022-08-05T00:34:56.663Z,28.01
2022-08-05T00:37:13.845Z,28.10
2022-08-05T00:39:57.930Z,28.15
2022-08-05T00:42:41.612Z,28.20
2022-08-05T00:45:13.448Z,28.23
2022-08-05T00:48:05.742Z,28.21
2022-08-05T00:51:08.978Z,28.30
2022-08-05T00:54:48.488Z,28.39
2022-08-05T00:57:55.703Z,28.45
2022-08-05T01:00:27.635Z,28.49
2022-08-05T01:03:02.010Z,28.49
2022-08-05T01:10:16.989Z,28.61
2022-08-05T01:13:12.838Z,28.70
2022-08-05T01:15:52.490Z,28.75
2022-08-05T01:18:36.310Z,28.81
2022-08-05T01:21:13.822Z,28.88
2022-08-05T01:24:14.342Z,28.89
2022-08-05T01:26:50.849Z,28.93
2022-08-05T01:29:49.972Z,28.94
2022-08-05T01:32:27.682Z,28.97
2022-08-05T01:35:10.808Z,29.02
2022-08-05T01:37:54.623Z,29.12
2022-08-05T01:40:30.869Z,29.18
2022-08-05T01:43:05.281Z,29.24
2022-08-05T01:45:43.076Z,29.28
2022-08-05T01:48:15.312Z,29.33
2022-08-05T01:50:51.048Z,29.39
2022-08-05T01:53:55.035Z,29.43
2022-08-05T01:58:10.211Z,29.49
2022-08-05T01:59:13.357Z,29.54
2022-08-05T02:01:49.128Z,29.57
2022-08-05T02:04:22.173Z,29.60
2022-08-05T02:06:54.579Z,29.63
2022-08-05T02:09:26.880Z,29.68
2022-08-05T02:12:01.619Z,29.70
2022-08-05T02:14:55.526Z,29.69
2022-08-05T02:18:31.562Z,29.73
2022-08-05T02:21:15.372Z,29.77
2022-08-05T02:23:53.346Z,29.81
2022-08-05T02:26:27.542Z,29.87
2022-08-05T02:28:59.407Z,29.91
2022-08-05T02:31:34.547Z,29.97
2022-08-05T02:34:15.006Z,30.02
2022-08-05T02:36:58.213Z,30.08
2022-08-05T02:39:36.152Z,30.13
2022-08-05T02:42:25.717Z,30.14
2022-08-05T02:44:59.414Z,30.13
2022-08-05T02:48:06.811Z,30.18
2022-08-05T02:50:29.931Z,30.21
2022-08-05T02:53:01.692Z,30.23
2022-08-05T02:55:53.744Z,30.27
2022-08-05T02:58:27.278Z,30.32
2022-08-05T03:01:01.828Z,30.33
2022-08-05T03:04:02.568Z,30.36
2022-08-05T03:06:54.424Z,30.31
2022-08-05T03:09:18.001Z,30.29
2022-08-05T03:12:08.116Z,30.38
2022-08-05T03:14:45.647Z,30.39
2022-08-05T03:17:16.788Z,30.46
2022-08-05T03:19:46.679Z,30.49
2022-08-05T03:22:32.547Z,30.51
2022-08-05T03:25:11.668Z,30.53
2022-08-05T03:28:00.966Z,30.56
2022-08-05T03:30:35.421Z,30.63
2022-08-05T03:33:08.748Z,30.63
2022-08-05T03:35:41.241Z,30.68
2022-08-05T03:38:15.955Z,30.74
2022-08-05T03:40:48.764Z,30.75
2022-08-05T03:44:09.829Z,30.79
2022-08-05T03:46:10.843Z,30.75
2022-08-05T03:48:45.307Z,30.82
2022-08-05T03:52:37.042Z,30.85
2022-08-05T03:55:53.224Z,30.88
2022-08-05T03:57:44.346Z,30.91
2022-08-05T04:00:19.811Z,30.95
2022-08-05T04:02:58.925Z,30.98
2022-08-05T04:12:24.734Z,31.11
2022-08-05T04:18:00.128Z,31.13
2022-08-05T04:22:05.857Z,31.19
2022-08-05T04:24:28.240Z,31.25
2022-08-05T04:27:41.836Z,31.27
2022-08-05T04:30:36.818Z,31.29
2022-08-05T04:34:18.181Z,31.33
2022-08-05T04:36:46.191Z,31.36
2022-08-05T04:39:52.754Z,31.40
2022-08-05T04:45:48.981Z,31.46
2022-08-05T04:49:24.807Z,31.51
2022-08-05T04:52:05.690Z,31.56
2022-08-05T04:54:49.439Z,31.61
2022-08-05T05:00:58.928Z,31.69
2022-08-05T05:03:41.888Z,31.72
2022-08-05T05:06:39.919Z,31.75
2022-08-05T05:09:30.439Z,31.80
2022-08-05T05:12:45.593Z,31.85
2022-08-05T05:15:56.568Z,31.90
2022-08-05T05:18:33.363Z,31.96
2022-08-05T05:21:11.628Z,31.99
2022-08-05T05:24:03.919Z,32.02
2022-08-05T05:26:38.527Z,32.05
2022-08-05T05:29:21.911Z,32.08
2022-08-05T05:32:12.535Z,32.12
2022-08-05T05:35:00.275Z,32.14
2022-08-05T05:37:45.503Z,32.16
2022-08-05T05:40:28.226Z,32.19
2022-08-05T05:47:04.355Z,32.27
2022-08-05T05:49:57.008Z,32.32
2022-08-05T05:56:00.908Z,32.40
2022-08-05T05:59:07.968Z,32.43
2022-08-05T06:05:42.141Z,32.49
2022-08-05T06:11:19.890Z,32.58
2022-08-05T06:17:22.513Z,32.67
2022-08-05T06:20:06.336Z,32.68
2022-08-05T06:22:57.257Z,32.73
2022-08-05T06:26:20.659Z,32.77
2022-08-05T06:29:42.932Z,32.79
2022-08-05T06:32:29.135Z,32.79
2022-08-05T06:38:46.920Z,32.90
2022-08-05T06:48:44.067Z,32.96
2022-08-05T06:54:31.296Z,33.04
2022-08-05T06:57:57.303Z,33.06
2022-08-05T07:03:22.132Z,33.14
2022-08-05T07:06:32.433Z,33.19
2022-08-05T07:09:15.419Z,33.24
2022-08-05T07:11:56.916Z,33.28
2022-08-05T07:15:06.441Z,33.31
2022-08-05T07:18:09.118Z,33.34
2022-08-05T07:21:06.291Z,33.34
2022-08-05T07:23:50.077Z,33.38
2022-08-05T07:26:32.840Z,33.42
2022-08-05T07:30:22.267Z,33.45
2022-08-05T07:32:38.944Z,33.48
2022-08-05T07:36:04.593Z,33.48
2022-08-05T07:38:33.288Z,33.51
2022-08-05T07:42:13.331Z,33.52
2022-08-05T07:44:52.262Z,33.54
2022-08-05T07:47:55.733Z,33.57
2022-08-05T07:50:56.426Z,33.63
2022-08-05T07:53:50.328Z,33.62
2022-08-05T07:57:14.012Z,33.68
2022-08-05T08:00:17.266Z,33.69
2022-08-05T08:03:44.066Z,33.70
2022-08-05T08:06:37.487Z,33.72
2022-08-05T08:12:49.700Z,33.78
2022-08-05T08:20:45.230Z,33.85
2022-08-05T08:24:01.800Z,33.87
2022-08-05T08:26:30.576Z,33.88
2022-08-05T08:29:45.575Z,33.91
2022-08-05T08:32:25.985Z,33.93
2022-08-05T08:38:35.513Z,34.01
2022-08-05T08:41:52.671Z,34.06
2022-08-05T08:45:43.994Z,34.12
2022-08-05T08:49:03.078Z,34.15
2022-08-05T08:52:04.052Z,34.20
2022-08-05T08:54:51.123Z,34.25
2022-08-05T08:57:48.284Z,34.29
2022-08-05T09:04:10.653Z,34.44
2022-08-05T09:06:49.850Z,34.48
2022-08-05T09:09:34.598Z,34.53
2022-08-05T09:12:20.280Z,34.59
2022-08-05T09:15:08.125Z,34.60
2022-08-05T09:18:09.031Z,34.59
2022-08-05T09:20:47.655Z,34.56
2022-08-05T09:23:43.948Z,34.55
2022-08-05T09:26:43.839Z,34.52
2022-08-05T09:29:31.105Z,34.48
2022-08-05T09:32:45.552Z,34.48
2022-08-05T09:38:29.386Z,34.41
2022-08-05T09:41:19.423Z,34.35
2022-08-05T09:43:56.814Z,34.26
2022-08-05T09:50:03.392Z,34.14
2022-08-05T09:52:45.079Z,34.09
2022-08-05T09:55:57.214Z,34.02
2022-08-05T09:58:17.730Z,33.99
2022-08-05T10:01:32.021Z,33.91
2022-08-05T10:04:28.518Z,33.87
2022-08-05T10:07:31.868Z,33.79
2022-08-05T10:10:32.334Z,33.73
2022-08-05T10:14:18.913Z,33.67
2022-08-05T10:17:04.382Z,33.59
2022-08-05T10:23:21.857Z,33.47
2022-08-05T10:26:51.732Z,33.43
2022-08-05T10:30:41.511Z,33.41
2022-08-05T10:32:53.917Z,33.35
2022-08-05T10:35:48.560Z,33.29
2022-08-05T10:38:46.106Z,33.24
2022-08-05T10:41:47.481Z,33.15
2022-08-05T10:44:41.963Z,33.10
2022-08-05T10:47:34.927Z,33.02
2022-08-05T10:50:20.459Z,32.95
2022-08-05T10:53:06.149Z,32.88
2022-08-05T10:56:38.417Z,32.79
2022-08-05T11:00:02.964Z,32.72
2022-08-05T11:08:57.553Z,32.42
2022-08-05T11:22:28.645Z,31.94
2022-08-05T11:26:04.215Z,31.85
2022-08-05T11:29:18.005Z,31.75
2022-08-05T11:32:44.781Z,31.67
2022-08-05T11:36:10.297Z,31.60
2022-08-05T11:39:00.332Z,31.55
2022-08-05T11:42:11.003Z,31.48
2022-08-05T11:44:56.055Z,31.44
2022-08-05T11:47:49.557Z,31.38
2022-08-05T12:05:08.154Z,30.95
2022-08-05T12:08:09.628Z,30.93
2022-08-05T12:11:10.355Z,30.91
2022-08-05T12:14:10.346Z,30.87
2022-08-05T12:16:49.370Z,30.86
2022-08-05T12:20:26.159Z,30.84
2022-08-05T12:22:14.140Z,30.82
2022-08-05T12:25:08.244Z,30.82
2022-08-05T12:27:53.413Z,30.78
2022-08-05T12:30:46.159Z,30.78
2022-08-05T12:33:36.322Z,30.73
2022-08-05T12:36:29.518Z,30.75
2022-08-05T12:42:58.777Z,30.63
2022-08-05T12:48:50.410Z,30.54
2022-08-05T12:54:55.583Z,30.46
2022-08-05T13:02:00.103Z,30.36
2022-08-05T13:04:27.628Z,30.30
2022-08-05T13:10:32.812Z,30.21
2022-08-05T13:14:05.103Z,30.20
2022-08-05T13:16:32.790Z,30.15
2022-08-05T13:19:13.253Z,30.16
2022-08-05T13:21:55.918Z,30.14
2022-08-05T13:24:51.094Z,30.12
2022-08-05T13:34:21.275Z,30.12
2022-08-05T13:37:07.344Z,30.08
2022-08-05T13:40:16.401Z,30.01
2022-08-05T13:43:22.362Z,29.94
2022-08-05T13:46:03.015Z,29.95
2022-08-05T13:48:58.519Z,29.89
2022-08-05T13:51:58.189Z,29.91
2022-08-05T13:57:50.871Z,29.91
2022-08-05T14:00:51.881Z,29.88
2022-08-05T14:03:47.468Z,29.89
2022-08-05T14:10:01.879Z,29.87
2022-08-05T14:12:54.583Z,29.86
2022-08-05T14:16:07.597Z,29.82
2022-08-05T14:19:16.171Z,29.80
2022-08-05T14:22:08.877Z,29.76
2022-08-05T14:24:54.748Z,29.77
2022-08-05T14:27:24.908Z,29.75
2022-08-05T14:30:05.679Z,29.72
2022-08-05T14:33:16.320Z,29.69
2022-08-05T14:36:48.640Z,29.67
2022-08-05T14:39:30.794Z,29.63
2022-08-05T14:42:36.910Z,29.63
2022-08-05T14:45:35.174Z,29.61
2022-08-05T14:48:33.324Z,29.62
2022-08-05T14:51:11.296Z,29.57
2022-08-05T14:54:27.800Z,29.50
2022-08-05T14:57:33.920Z,29.47
2022-08-05T15:00:33.122Z,29.43
2022-08-05T15:08:12.435Z,29.39
2022-08-05T15:13:46.288Z,29.36
2022-08-05T15:20:43.384Z,29.26
2022-08-05T15:27:43.078Z,29.21
2022-08-05T15:30:22.500Z,29.18
2022-08-05T15:33:05.453Z,29.11
2022-08-05T15:36:16.682Z,29.09
2022-08-05T15:41:02.955Z,29.03
2022-08-05T15:42:53.964Z,28.98
2022-08-05T15:45:41.018Z,28.91
2022-08-05T15:48:34.942Z,28.87
2022-08-05T15:51:19.370Z,28.83
2022-08-05T15:54:58.110Z,28.82
2022-08-05T15:57:49.764Z,28.84
2022-08-05T16:01:16.173Z,28.85
2022-08-05T16:04:10.553Z,28.85
2022-08-05T16:06:42.017Z,28.85
2022-08-05T16:09:14.654Z,28.85
2022-08-05T16:12:12.638Z,28.80
2022-08-05T16:14:43.680Z,28.83
2022-08-05T16:17:15.169Z,28.84
2022-08-05T16:20:04.368Z,28.83
2022-08-05T16:22:37.023Z,28.85
2022-08-05T16:25:11.252Z,28.84
2022-08-05T16:28:00.413Z,28.81
2022-08-05T16:30:36.311Z,28.81
2022-08-05T16:33:10.619Z,28.78
2022-08-05T16:35:43.023Z,28.76
2022-08-05T16:38:24.141Z,28.73
2022-08-05T16:42:12.187Z,28.71
2022-08-05T16:43:56.102Z,28.67
2022-08-05T16:46:27.793Z,28.64
2022-08-05T16:49:01.121Z,28.62
2022-08-05T16:52:17.293Z,28.58
2022-08-05T16:55:24.457Z,28.54
2022-08-05T16:59:07.959Z,28.49
2022-08-05T17:05:14.055Z,28.45
2022-08-05T17:32:59.701Z,28.19
2022-08-05T17:46:45.499Z,28.10
2022-08-05T17:49:24.168Z,28.08
2022-08-05T17:51:57.343Z,28.05
2022-08-05T17:54:27.972Z,28.02
2022-08-05T17:56:59.390Z,28.01
2022-08-05T17:59:30.914Z,28.01
2022-08-05T18:02:04.587Z,28.00
2022-08-05T18:04:51.191Z,28.01
2022-08-05T18:07:24.990Z,27.99
2022-08-05T18:10:09.990Z,27.93
2022-08-05T18:12:45.201Z,27.91
2022-08-05T18:15:18.581Z,27.85
2022-08-05T18:18:00.631Z,27.78
2022-08-05T18:20:34.809Z,27.71
2022-08-05T18:23:09.182Z,27.70
2022-08-05T18:25:45.081Z,27.68
2022-08-05T18:28:22.092Z,27.69
2022-08-05T18:31:02.389Z,27.67
2022-08-05T18:33:46.853Z,27.64
2022-08-05T18:36:19.558Z,27.63
2022-08-05T18:38:57.382Z,27.64
2022-08-05T18:41:57.941Z,27.64
2022-08-05T18:44:25.834Z,27.65
2022-08-05T18:47:07.263Z,27.65
2022-08-05T18:49:58.152Z,27.65
2022-08-05T18:52:38.327Z,27.66
2022-08-05T18:55:10.869Z,27.66
2022-08-05T18:57:49.870Z,27.66
2022-08-05T19:00:29.080Z,27.66
2022-08-05T19:03:04.142Z,27.66
2022-08-05T19:06:11.238Z,27.66
2022-08-05T19:08:30.482Z,27.67
2022-08-05T19:11:05.216Z,27.67
2022-08-05T19:13:38.808Z,27.68
2022-08-05T19:16:22.026Z,27.68
2022-08-05T19:18:58.869Z,27.66
2022-08-05T19:21:34.364Z,27.66
2022-08-05T19:24:13.047Z,27.63
2022-08-05T19:26:55.391Z,27.59
2022-08-05T19:29:36.006Z,27.57
2022-08-05T19:32:11.399Z,27.56
2022-08-05T19:34:55.115Z,27.53
2022-08-05T19:37:47.212Z,27.51
2022-08-05T19:40:24.331Z,27.49
2022-08-05T19:43:04.431Z,27.51
2022-08-05T19:45:37.798Z,27.51
2022-08-05T19:48:25.436Z,27.49
2022-08-05T19:50:56.639Z,27.49
2022-08-05T19:54:04.306Z,27.46
2022-08-05T19:56:29.897Z,27.42
2022-08-05T19:59:53.811Z,27.45
2022-08-05T20:02:00.708Z,27.46
2022-08-05T20:04:33.623Z,27.44
2022-08-05T20:07:04.690Z,27.40
2022-08-05T20:09:55.109Z,27.41
2022-08-05T20:12:28.314Z,27.39
2022-08-05T20:14:59.611Z,27.36
2022-08-05T20:17:30.828Z,27.33
2022-08-05T20:20:11.359Z,27.33
2022-08-05T20:22:42.123Z,27.32
2022-08-05T20:25:17.460Z,27.33
2022-08-05T20:27:48.282Z,27.32
2022-08-05T20:30:20.569Z,27.31
2022-08-05T20:32:57.582Z,27.31
2022-08-05T20:35:28.192Z,27.29
2022-08-05T20:38:05.858Z,27.32
2022-08-05T20:40:38.933Z,27.30
2022-08-05T20:43:14.306Z,27.31
2022-08-05T20:45:56.675Z,27.31
2022-08-05T20:48:28.355Z,27.28
2022-08-05T20:50:59.007Z,27.26
2022-08-05T20:53:41.000Z,27.26
2022-08-05T20:56:11.598Z,27.24
2022-08-05T20:58:42.202Z,27.26
2022-08-05T21:01:13.766Z,27.27
2022-08-05T21:03:48.126Z,27.27
2022-08-05T21:06:28.555Z,27.28
2022-08-05T21:09:00.490Z,27.23
2022-08-05T21:12:06.895Z,27.19
2022-08-05T21:14:21.767Z,27.20
2022-08-05T21:16:56.961Z,27.20
2022-08-05T21:19:27.047Z,27.19
2022-08-05T21:21:58.462Z,27.17
2022-08-05T21:24:28.767Z,27.14
2022-08-05T21:27:00.287Z,27.17
2022-08-05T21:29:32.554Z,27.17
2022-08-05T21:32:11.399Z,27.15
2022-08-05T21:34:55.986Z,27.16
2022-08-05T21:37:41.382Z,27.16
2022-08-05T21:40:14.115Z,27.14
2022-08-05T21:42:45.618Z,27.15
2022-08-05T21:45:24.612Z,27.14
2022-08-05T21:48:08.304Z,27.17
2022-08-05T21:50:38.887Z,27.17
2022-08-05T21:53:16.683Z,27.20
2022-08-05T21:56:05.781Z,27.19
2022-08-05T21:58:42.249Z,27.19
2022-08-05T22:01:23.848Z,27.22
2022-08-05T22:03:55.457Z,27.21
2022-08-05T22:06:35.373Z,27.20
2022-08-05T22:09:13.928Z,27.18
2022-08-05T22:11:46.926Z,27.18
2022-08-05T22:14:35.594Z,27.20
2022-08-05T22:17:08.570Z,27.22
2022-08-05T22:20:01.522Z,27.25
2022-08-05T22:22:29.854Z,27.26
2022-08-05T22:25:24.059Z,27.29
2022-08-05T22:28:12.105Z,27.28
2022-08-05T22:30:56.792Z,27.31
2022-08-05T22:33:57.228Z,27.32
2022-08-05T22:36:25.024Z,27.31
2022-08-05T22:38:55.452Z,27.33
2022-08-05T22:42:11.474Z,27.36
2022-08-05T22:44:19.430Z,27.35
2022-08-05T22:46:53.026Z,27.36
2022-08-05T22:50:19.303Z,27.39
2022-08-05T22:52:30.298Z,27.43
2022-08-05T22:55:19.399Z,27.39
2022-08-05T22:57:55.397Z,27.46
2022-08-05T23:00:26.617Z,27.48
2022-08-05T23:03:00.636Z,27.48
2022-08-05T23:05:35.883Z,27.50
2022-08-05T23:08:07.491Z,27.53
2022-08-05T23:10:44.547Z,27.55
2022-08-05T23:13:14.775Z,27.56
2022-08-05T23:15:44.913Z,27.58
2022-08-05T23:18:20.675Z,27.63
2022-08-05T23:20:53.175Z,27.66
2022-08-05T23:23:24.361Z,27.69
2022-08-05T23:26:00.989Z,27.70
2022-08-05T23:28:32.540Z,27.75
2022-08-05T23:31:17.439Z,27.80
2022-08-05T23:34:04.760Z,27.83
2022-08-05T23:36:40.149Z,27.91
2022-08-05T23:39:23.618Z,27.97
2022-08-05T23:42:08.678Z,28.00
2022-08-05T23:44:45.553Z,28.06
2022-08-05T23:47:25.372Z,28.08
2022-08-05T23:49:56.467Z,28.16
2022-08-05T23:52:37.644Z,28.23
2022-08-05T23:55:20.951Z,28.27
2022-08-05T23:57:52.879Z,28.27
